createdAt,value
2022-10-13T00:01:47.536Z,7.65
2022-10-13T00:04:14.014Z,7.66
2022-10-13T00:06:40.361Z,7.68
2022-10-13T00:09:06.904Z,7.54
2022-10-13T00:11:33.263Z,7.62
2022-10-13T00:14:02.093Z,7.55
2022-10-13T00:16:30.334Z,7.78
2022-10-13T00:18:56.922Z,7.73
2022-10-13T00:21:25.316Z,7.96
2022-10-13T00:23:53.265Z,7.95
2022-10-13T00:26:22.543Z,8.07
2022-10-13T00:28:52.586Z,8.12
2022-10-13T00:31:21.885Z,8.15
2022-10-13T00:33:49.332Z,8.11
2022-10-13T00:36:16.108Z,8.14
2022-10-13T00:38:42.809Z,7.93
2022-10-13T00:41:09.350Z,7.66
2022-10-13T00:43:55.151Z,7.92
2022-10-13T00:46:22.412Z,8.13
2022-10-13T00:48:50.229Z,8.21
2022-10-13T00:51:21.118Z,8.24
2022-10-13T00:53:48.422Z,8.35
2022-10-13T00:56:19.037Z,8.47
2022-10-13T00:58:47.265Z,8.65
2022-10-13T01:01:13.988Z,8.64
2022-10-13T01:03:40.475Z,8.63
2022-10-13T01:06:08.129Z,8.72
2022-10-13T01:08:34.804Z,8.67
2022-10-13T01:11:25.682Z,8.70
2022-10-13T01:14:03.442Z,8.69
2022-10-13T01:16:43.745Z,8.72
2022-10-13T01:19:31.178Z,8.89
2022-10-13T01:22:14.087Z,8.89
2022-10-13T01:24:56.151Z,8.93
2022-10-13T01:27:51.679Z,8.83
2022-10-13T01:30:19.801Z,8.83
2022-10-13T01:32:55.583Z,8.90
2022-10-13T01:35:24.709Z,8.83
2022-10-13T01:37:57.472Z,8.77
2022-10-13T01:40:51.948Z,8.88
2022-10-13T01:43:29.727Z,8.94
2022-10-13T01:46:02.174Z,8.96
2022-10-13T01:48:29.352Z,9.02
2022-10-13T01:50:58.781Z,9.04
2022-10-13T01:53:25.599Z,9.07
2022-10-13T01:55:55.125Z,9.14
2022-10-13T01:58:23.149Z,9.17
2022-10-13T02:01:04.217Z,9.19
2022-10-13T02:03:43.689Z,9.10
2022-10-13T02:06:15.237Z,9.02
2022-10-13T02:08:49.787Z,9.15
2022-10-13T02:11:23.814Z,9.24
2022-10-13T02:14:16.406Z,9.24
2022-10-13T02:16:45.322Z,9.32
2022-10-13T02:19:15.895Z,9.30
2022-10-13T02:21:43.026Z,9.33
2022-10-13T02:24:10.209Z,9.26
2022-10-13T02:26:37.431Z,9.20
2022-10-13T02:29:12.307Z,9.34
2022-10-13T02:31:38.986Z,9.18
2022-10-13T02:34:05.395Z,9.02
2022-10-13T02:36:31.869Z,9.06
2022-10-13T02:38:58.894Z,9.19
2022-10-13T02:41:25.350Z,9.35
2022-10-13T02:43:51.927Z,9.27
2022-10-13T02:46:18.339Z,9.17
2022-10-13T02:48:44.693Z,9.15
2022-10-13T02:51:11.124Z,9.26
2022-10-13T02:53:37.487Z,9.32
2022-10-13T02:56:04.027Z,9.35
2022-10-13T02:58:30.383Z,9.41
2022-10-13T03:01:08.698Z,9.39
2022-10-13T03:03:35.542Z,9.35
2022-10-13T03:06:02.634Z,9.31
2022-10-13T03:08:29.585Z,9.28
2022-10-13T03:10:56.088Z,9.22
2022-10-13T03:13:22.421Z,9.17
2022-10-13T03:15:48.868Z,9.23
2022-10-13T03:18:15.260Z,9.33
2022-10-13T03:20:42.017Z,9.37
2022-10-13T03:23:08.384Z,9.42
2022-10-13T03:25:35.913Z,9.52
2022-10-13T03:28:02.381Z,9.51
2022-10-13T03:30:29.519Z,9.53
2022-10-13T03:32:55.877Z,9.56
2022-10-13T03:35:22.227Z,9.66
2022-10-13T03:37:48.631Z,9.63
2022-10-13T03:40:15.128Z,9.63
2022-10-13T03:42:41.535Z,9.64
2022-10-13T03:45:09.818Z,9.67
2022-10-13T03:47:37.239Z,9.70
2022-10-13T03:50:05.582Z,9.66
2022-10-13T03:52:31.981Z,9.67
2022-10-13T03:54:58.366Z,9.74
2022-10-13T03:57:24.780Z,9.70
2022-10-13T03:59:51.143Z,9.74
2022-10-13T04:02:17.687Z,9.74
2022-10-13T04:04:44.323Z,9.75
2022-10-13T04:07:10.652Z,9.72
2022-10-13T04:09:37.037Z,9.65
2022-10-13T04:12:03.553Z,9.71
2022-10-13T04:14:29.989Z,9.73
2022-10-13T04:16:56.392Z,9.69
2022-10-13T04:19:23.016Z,9.69
2022-10-13T04:21:49.371Z,9.85
2022-10-13T04:24:17.855Z,9.91
2022-10-13T04:26:45.052Z,9.95
2022-10-13T04:29:12.406Z,10.06
2022-10-13T04:31:40.410Z,9.90
2022-10-13T04:34:07.667Z,9.91
2022-10-13T04:36:34.007Z,9.87
2022-10-13T04:39:00.361Z,9.97
2022-10-13T04:41:26.845Z,9.95
2022-10-13T04:43:54.142Z,9.62
2022-10-13T04:46:26.563Z,9.29
2022-10-13T04:48:53.223Z,9.06
2022-10-13T04:51:21.762Z,9.03
2022-10-13T04:53:48.644Z,9.18
2022-10-13T04:56:17.800Z,9.16
2022-10-13T04:58:46.132Z,9.48
2022-10-13T05:01:21.848Z,9.56
2022-10-13T05:03:59.961Z,9.63
2022-10-13T05:06:29.634Z,9.56
2022-10-13T05:08:56.614Z,9.62
2022-10-13T05:11:24.243Z,9.67
2022-10-13T05:13:50.963Z,9.72
2022-10-13T05:16:19.485Z,9.62
2022-10-13T05:18:45.846Z,9.61
2022-10-13T05:21:14.597Z,9.71
2022-10-13T05:23:41.820Z,9.72
2022-10-13T05:26:11.331Z,9.85
2022-10-13T05:28:38.308Z,9.85
2022-10-13T05:31:13.777Z,9.86
2022-10-13T05:33:40.912Z,9.86
2022-10-13T05:36:11.999Z,9.91
2022-10-13T05:38:38.845Z,9.88
2022-10-13T05:41:10.749Z,9.84
2022-10-13T05:43:39.149Z,9.91
2022-10-13T05:46:06.371Z,9.93
2022-10-13T05:48:32.799Z,9.77
2022-10-13T05:51:01.548Z,9.76
2022-10-13T05:53:31.077Z,9.88
2022-10-13T05:56:06.092Z,9.95
2022-10-13T05:58:36.635Z,9.98
2022-10-13T06:01:07.084Z,9.97
2022-10-13T06:03:34.440Z,9.93
2022-10-13T06:06:00.908Z,9.92
2022-10-13T06:08:27.417Z,9.73
2022-10-13T06:10:53.967Z,9.68
2022-10-13T06:13:20.290Z,9.69
2022-10-13T06:15:46.683Z,10.00
2022-10-13T06:18:13.046Z,9.92
2022-10-13T06:20:39.489Z,10.28
2022-10-13T06:23:06.004Z,10.25
2022-10-13T06:25:32.688Z,10.15
2022-10-13T06:28:00.464Z,10.17
2022-10-13T06:30:27.302Z,10.24
2022-10-13T06:32:55.337Z,10.31
2022-10-13T06:35:24.992Z,10.28
2022-10-13T06:37:53.071Z,10.38
2022-10-13T06:40:19.397Z,10.38
2022-10-13T06:42:49.954Z,10.22
2022-10-13T06:45:16.874Z,10.17
2022-10-13T06:47:43.371Z,10.17
2022-10-13T06:50:09.884Z,10.24
2022-10-13T06:52:36.217Z,10.37
2022-10-13T06:55:02.563Z,10.35
2022-10-13T06:57:28.920Z,10.58
2022-10-13T06:59:55.298Z,10.43
2022-10-13T07:02:22.048Z,10.47
2022-10-13T07:04:48.691Z,10.51
2022-10-13T07:07:16.057Z,10.44
2022-10-13T07:09:42.759Z,10.38
2022-10-13T07:12:09.147Z,10.53
2022-10-13T07:14:37.298Z,10.60
2022-10-13T07:17:05.609Z,10.58
2022-10-13T07:19:32.113Z,10.78
2022-10-13T07:21:58.469Z,10.76
2022-10-13T07:24:25.343Z,10.69
2022-10-13T07:26:51.805Z,10.86
2022-10-13T07:29:18.467Z,10.91
2022-10-13T07:31:45.694Z,10.97
2022-10-13T07:34:12.889Z,10.91
2022-10-13T07:36:41.560Z,11.06
2022-10-13T07:39:08.717Z,11.11
2022-10-13T07:41:36.379Z,11.09
2022-10-13T07:44:03.030Z,11.43
2022-10-13T07:46:29.846Z,11.31
2022-10-13T07:48:56.422Z,11.11
2022-10-13T07:51:23.095Z,11.19
2022-10-13T07:53:49.497Z,11.11
2022-10-13T07:56:16.989Z,11.22
2022-10-13T07:58:46.475Z,11.12
2022-10-13T08:01:13.670Z,11.13
2022-10-13T08:03:44.137Z,11.14
2022-10-13T08:06:14.362Z,11.14
2022-10-13T08:08:40.811Z,11.16
2022-10-13T08:11:13.447Z,11.28
2022-10-13T08:13:42.905Z,11.52
2022-10-13T08:16:09.983Z,11.80
2022-10-13T08:18:36.442Z,11.63
2022-10-13T08:21:32.973Z,11.48
2022-10-13T08:23:50.239Z,11.44
2022-10-13T08:26:23.297Z,11.85
2022-10-13T08:29:09.432Z,11.56
2022-10-13T08:31:36.594Z,11.46
2022-10-13T08:34:03.171Z,11.37
2022-10-13T08:36:29.513Z,11.35
2022-10-13T08:38:56.009Z,11.42
2022-10-13T08:41:28.384Z,11.45
2022-10-13T08:44:47.607Z,11.59
2022-10-13T08:47:02.309Z,11.52
2022-10-13T08:49:30.581Z,11.61
2022-10-13T08:51:58.727Z,11.86
2022-10-13T08:54:26.103Z,11.88
2022-10-13T08:56:52.724Z,12.06
2022-10-13T08:59:21.638Z,12.12
2022-10-13T09:01:52.584Z,12.08
2022-10-13T09:04:33.171Z,11.79
2022-10-13T09:07:14.337Z,12.16
2022-10-13T09:09:40.788Z,12.19
2022-10-13T09:12:09.798Z,11.81
2022-10-13T09:14:38.591Z,11.63
2022-10-13T09:17:23.781Z,11.92
2022-10-13T09:20:27.513Z,12.06
2022-10-13T09:23:04.457Z,12.00
2022-10-13T09:25:40.364Z,12.49
2022-10-13T09:28:30.256Z,12.12
2022-10-13T09:31:27.310Z,12.07
2022-10-13T09:33:59.763Z,11.85
2022-10-13T09:36:26.243Z,11.89
2022-10-13T09:39:07.982Z,11.84
2022-10-13T09:41:35.832Z,11.86
2022-10-13T09:44:12.463Z,11.80
2022-10-13T09:46:55.952Z,11.75
2022-10-13T09:49:32.250Z,11.74
2022-10-13T09:52:02.574Z,11.97
2022-10-13T09:54:50.019Z,12.01
2022-10-13T09:57:40.145Z,11.83
2022-10-13T10:00:16.352Z,12.05
2022-10-13T10:03:10.032Z,12.33
2022-10-13T10:05:42.369Z,12.27
2022-10-13T10:09:02.601Z,12.57
2022-10-13T10:11:49.996Z,12.69
2022-10-13T10:14:25.336Z,12.82
2022-10-13T10:17:30.774Z,13.12
2022-10-13T10:20:13.256Z,13.39
2022-10-13T10:23:05.837Z,13.69
2022-10-13T10:25:49.118Z,13.97
2022-10-13T10:28:24.555Z,14.31
2022-10-13T10:31:34.851Z,14.49
2022-10-13T10:34:27.047Z,14.16
2022-10-13T10:37:06.258Z,14.30
2022-10-13T10:39:52.771Z,14.28
2022-10-13T10:42:59.245Z,14.18
2022-10-13T10:45:30.444Z,14.30
2022-10-13T10:48:04.715Z,14.64
2022-10-13T10:50:33.256Z,14.31
2022-10-13T10:53:09.119Z,14.15
2022-10-13T10:55:38.298Z,14.12
2022-10-13T10:58:22.607Z,14.13
2022-10-13T11:00:59.865Z,14.23
2022-10-13T11:03:29.283Z,14.41
2022-10-13T11:06:04.879Z,14.67
2022-10-13T11:08:41.750Z,14.39
2022-10-13T11:11:24.851Z,14.46
2022-10-13T11:13:59.759Z,14.89
2022-10-13T11:16:38.239Z,14.96
2022-10-13T11:19:25.600Z,14.85
2022-10-13T11:21:54.971Z,15.10
2022-10-13T11:24:33.579Z,15.19
2022-10-13T11:27:10.526Z,15.35
2022-10-13T11:29:49.106Z,15.27
2022-10-13T11:32:27.697Z,15.46
2022-10-13T11:34:58.395Z,15.69
2022-10-13T11:37:32.168Z,15.44
2022-10-13T11:40:11.748Z,15.52
2022-10-13T11:42:56.927Z,15.44
2022-10-13T11:45:34.723Z,15.31
2022-10-13T11:48:29.195Z,15.54
2022-10-13T11:51:20.767Z,15.92
2022-10-13T11:54:04.142Z,15.85
2022-10-13T11:56:49.011Z,16.20
2022-10-13T11:59:27.769Z,16.05
2022-10-13T12:02:18.900Z,15.62
2022-10-13T12:05:04.179Z,15.55
2022-10-13T12:07:36.873Z,15.41
2022-10-13T12:10:07.850Z,15.34
2022-10-13T12:12:34.692Z,15.28
2022-10-13T12:15:04.388Z,15.36
2022-10-13T12:17:38.910Z,15.41
2022-10-13T12:20:28.199Z,15.48
2022-10-13T12:22:55.977Z,15.92
2022-10-13T12:25:26.015Z,15.93
2022-10-13T12:27:55.841Z,15.75
2022-10-13T12:30:28.445Z,15.89
2022-10-13T12:32:57.126Z,16.05
2022-10-13T12:35:26.927Z,15.61
2022-10-13T12:37:54.947Z,15.61
2022-10-13T12:40:22.163Z,15.46
2022-10-13T12:42:49.763Z,15.30
2022-10-13T12:45:19.662Z,15.35
2022-10-13T12:47:49.701Z,15.29
2022-10-13T12:50:25.356Z,15.32
2022-10-13T12:53:13.103Z,15.36
2022-10-13T12:55:58.876Z,15.45
2022-10-13T12:58:29.260Z,15.85
2022-10-13T13:01:02.707Z,15.77
2022-10-13T13:03:30.232Z,15.60
2022-10-13T13:06:15.126Z,15.45
2022-10-13T13:08:43.175Z,15.51
2022-10-13T13:11:32.653Z,15.65
2022-10-13T13:14:24.370Z,15.59
2022-10-13T13:17:27.609Z,15.68
2022-10-13T13:20:20.659Z,15.95
2022-10-13T13:22:47.168Z,15.93
2022-10-13T13:25:14.997Z,15.94
2022-10-13T13:27:41.500Z,15.97
2022-10-13T13:30:13.850Z,15.96
2022-10-13T13:32:40.536Z,16.12
2022-10-13T13:35:07.276Z,16.25
2022-10-13T13:37:33.604Z,16.56
2022-10-13T13:40:00.290Z,16.59
2022-10-13T13:42:28.668Z,16.43
2022-10-13T13:44:55.390Z,16.67
2022-10-13T13:47:24.491Z,16.76
2022-10-13T13:49:56.018Z,16.38
2022-10-13T13:52:23.992Z,16.22
2022-10-13T13:54:51.092Z,16.34
2022-10-13T13:57:19.688Z,16.28
2022-10-13T13:59:46.269Z,16.28
2022-10-13T14:02:16.306Z,16.36
2022-10-13T14:04:42.777Z,16.28
2022-10-13T14:07:09.822Z,16.63
2022-10-13T14:09:36.362Z,16.37
2022-10-13T14:12:03.045Z,16.10
2022-10-13T14:14:33.036Z,16.24
2022-10-13T14:17:03.716Z,16.20
2022-10-13T14:19:31.568Z,16.23
2022-10-13T14:21:58.058Z,16.56
2022-10-13T14:24:24.787Z,16.49
2022-10-13T14:26:51.287Z,16.56
2022-10-13T14:29:17.640Z,16.35
2022-10-13T14:31:43.996Z,16.23
2022-10-13T14:34:10.365Z,16.30
2022-10-13T14:36:36.753Z,16.29
2022-10-13T14:39:03.422Z,16.25
2022-10-13T14:41:29.865Z,16.25
2022-10-13T14:43:56.924Z,16.05
2022-10-13T14:46:24.481Z,15.96
2022-10-13T14:48:51.193Z,16.03
2022-10-13T14:51:17.652Z,15.97
2022-10-13T14:53:45.528Z,15.87
2022-10-13T14:56:25.355Z,15.85
2022-10-13T14:58:54.382Z,15.94
2022-10-13T15:01:20.887Z,15.99
2022-10-13T15:03:47.423Z,16.03
2022-10-13T15:06:19.433Z,15.99
2022-10-13T15:08:47.263Z,15.98
2022-10-13T15:11:14.540Z,15.91
2022-10-13T15:13:41.264Z,15.85
2022-10-13T15:16:08.476Z,15.83
2022-10-13T15:18:36.173Z,15.82
2022-10-13T15:21:02.740Z,15.79
2022-10-13T15:23:29.264Z,15.67
2022-10-13T15:25:58.818Z,15.69
2022-10-13T15:28:27.555Z,15.70
2022-10-13T15:30:54.336Z,15.72
2022-10-13T15:33:21.491Z,15.82
2022-10-13T15:35:49.920Z,15.77
2022-10-13T15:38:17.905Z,15.83
2022-10-13T15:40:44.775Z,15.78
2022-10-13T15:43:11.856Z,15.79
2022-10-13T15:45:38.623Z,15.79
2022-10-13T15:48:06.431Z,15.69
2022-10-13T15:50:33.134Z,15.71
2022-10-13T15:52:59.539Z,15.61
2022-10-13T15:55:26.035Z,15.59
2022-10-13T15:57:53.319Z,15.53
2022-10-13T16:00:19.679Z,15.60
2022-10-13T16:02:49.924Z,15.57
2022-10-13T16:05:16.419Z,15.45
2022-10-13T16:07:42.827Z,15.47
2022-10-13T16:10:12.142Z,15.43
2022-10-13T16:12:39.280Z,15.39
2022-10-13T16:15:07.525Z,15.42
2022-10-13T16:17:34.225Z,15.37
2022-10-13T16:20:01.016Z,15.36
2022-10-13T16:22:27.524Z,15.36
2022-10-13T16:24:53.947Z,15.38
2022-10-13T16:27:20.684Z,15.39
2022-10-13T16:29:47.068Z,15.34
2022-10-13T16:32:13.528Z,15.32
2022-10-13T16:34:39.908Z,15.35
2022-10-13T16:37:06.475Z,15.35
2022-10-13T16:39:32.898Z,15.32
2022-10-13T16:41:59.273Z,15.28
2022-10-13T16:44:25.678Z,15.20
2022-10-13T16:46:53.820Z,15.19
2022-10-13T16:49:20.219Z,15.18
2022-10-13T16:51:46.623Z,15.05
2022-10-13T16:54:13.109Z,15.05
2022-10-13T16:56:39.552Z,15.10
2022-10-13T16:59:06.654Z,15.04
2022-10-13T17:01:34.697Z,15.01
2022-10-13T17:04:01.200Z,15.04
2022-10-13T17:06:29.012Z,15.04
2022-10-13T17:08:57.435Z,15.04
2022-10-13T17:11:26.998Z,15.02
2022-10-13T17:13:55.387Z,15.03
2022-10-13T17:16:22.219Z,15.01
2022-10-13T17:18:48.575Z,15.03
2022-10-13T17:21:17.165Z,15.07
2022-10-13T17:23:48.327Z,15.05
2022-10-13T17:26:17.196Z,14.95
2022-10-13T17:28:44.456Z,14.93
2022-10-13T17:31:19.998Z,14.88
2022-10-13T17:33:47.276Z,14.86
2022-10-13T17:36:19.165Z,14.87
2022-10-13T17:38:46.323Z,14.82
2022-10-13T17:41:12.917Z,14.80
2022-10-13T17:43:40.403Z,14.73
2022-10-13T17:46:34.914Z,14.72
2022-10-13T17:49:00.502Z,14.68
2022-10-13T17:51:27.888Z,14.69
2022-10-13T17:53:57.862Z,14.64
2022-10-13T17:56:25.198Z,14.61
2022-10-13T17:58:52.124Z,14.52
2022-10-13T18:01:31.418Z,14.40
2022-10-13T18:04:01.143Z,14.54
2022-10-13T18:06:37.867Z,14.49
2022-10-13T18:09:19.116Z,14.51
2022-10-13T18:11:50.806Z,14.59
2022-10-13T18:14:22.678Z,14.60
2022-10-13T18:16:53.201Z,14.62
2022-10-13T18:19:20.564Z,14.61
2022-10-13T18:21:48.228Z,14.63
2022-10-13T18:24:14.675Z,14.59
2022-10-13T18:26:41.260Z,14.57
2022-10-13T18:29:09.127Z,14.85
2022-10-13T18:31:37.039Z,14.76
2022-10-13T18:34:06.435Z,14.81
2022-10-13T18:36:34.324Z,14.79
2022-10-13T18:39:07.391Z,14.55
2022-10-13T18:41:35.768Z,14.45
2022-10-13T18:44:03.859Z,14.36
2022-10-13T18:46:31.103Z,14.46
2022-10-13T18:48:58.222Z,14.34
2022-10-13T18:51:25.276Z,14.36
2022-10-13T18:53:52.050Z,14.25
2022-10-13T18:56:21.214Z,14.17
2022-10-13T18:58:48.389Z,14.23
2022-10-13T19:01:20.175Z,14.24
2022-10-13T19:03:47.801Z,14.24
2022-10-13T19:06:16.227Z,14.27
2022-10-13T19:08:43.750Z,14.32
2022-10-13T19:11:15.745Z,14.38
2022-10-13T19:13:42.887Z,14.41
2022-10-13T19:16:09.931Z,14.44
2022-10-13T19:18:36.700Z,14.43
2022-10-13T19:21:03.136Z,14.34
2022-10-13T19:23:29.611Z,14.43
2022-10-13T19:25:56.301Z,14.46
2022-10-13T19:28:23.220Z,14.48
2022-10-13T19:30:49.660Z,14.46
2022-10-13T19:33:17.488Z,14.49
2022-10-13T19:35:46.776Z,14.52
2022-10-13T19:38:14.296Z,14.60
2022-10-13T19:40:42.726Z,14.56
2022-10-13T19:43:10.291Z,14.57
2022-10-13T19:45:36.739Z,14.58
2022-10-13T19:48:03.525Z,14.63
2022-10-13T19:50:33.232Z,14.64
2022-10-13T19:52:59.607Z,14.59
2022-10-13T19:55:25.954Z,14.61
2022-10-13T19:57:52.509Z,14.61
2022-10-13T20:00:18.877Z,14.61
2022-10-13T20:02:45.206Z,14.61
2022-10-13T20:05:11.707Z,14.55
2022-10-13T20:07:38.075Z,14.62
2022-10-13T20:10:04.835Z,14.50
2022-10-13T20:12:31.228Z,14.47
2022-10-13T20:14:57.623Z,14.48
2022-10-13T20:17:24.177Z,14.40
2022-10-13T20:19:50.565Z,14.42
2022-10-13T20:22:16.916Z,14.42
2022-10-13T20:24:44.678Z,14.35
2022-10-13T20:27:11.321Z,14.34
2022-10-13T20:29:38.045Z,14.29
2022-10-13T20:32:04.648Z,14.26
2022-10-13T20:34:31.146Z,14.22
2022-10-13T20:36:57.506Z,14.21
2022-10-13T20:39:23.991Z,14.16
2022-10-13T20:41:50.365Z,14.17
2022-10-13T20:44:16.765Z,14.18
2022-10-13T20:46:43.470Z,14.10
2022-10-13T20:49:11.422Z,14.14
2022-10-13T20:51:40.088Z,14.14
2022-10-13T20:54:06.687Z,14.07
2022-10-13T20:56:33.528Z,14.05
2022-10-13T20:59:05.123Z,14.01
2022-10-13T21:01:32.403Z,13.97
2022-10-13T21:03:58.755Z,13.94
2022-10-13T21:06:26.199Z,13.93
2022-10-13T21:08:53.369Z,13.93
2022-10-13T21:11:21.777Z,13.92
2022-10-13T21:13:49.540Z,13.95
2022-10-13T21:16:19.363Z,13.97
2022-10-13T21:18:48.823Z,13.91
2022-10-13T21:21:19.882Z,13.91
2022-10-13T21:23:50.511Z,13.87
2022-10-13T21:26:21.384Z,13.90
2022-10-13T21:28:49.293Z,13.86
2022-10-13T21:31:17.372Z,13.94
2022-10-13T21:33:43.975Z,13.96
2022-10-13T21:36:13.375Z,13.96
2022-10-13T21:38:40.873Z,13.93
2022-10-13T21:41:08.781Z,13.90
2022-10-13T21:43:35.228Z,13.97
2022-10-13T21:46:09.562Z,13.98
2022-10-13T21:48:36.238Z,13.98
2022-10-13T21:51:15.281Z,13.99
2022-10-13T21:53:41.721Z,14.01
2022-10-13T21:56:11.518Z,14.06
2022-10-13T21:58:38.265Z,14.01
2022-10-13T22:01:05.811Z,14.10
2022-10-13T22:03:33.071Z,14.08
2022-10-13T22:06:04.495Z,14.02
2022-10-13T22:08:38.340Z,14.01
2022-10-13T22:11:07.011Z,13.93
2022-10-13T22:13:33.789Z,13.92
2022-10-13T22:16:19.405Z,13.96
2022-10-13T22:18:46.569Z,13.97
2022-10-13T22:21:16.909Z,13.96
2022-10-13T22:23:44.652Z,13.97
2022-10-13T22:26:11.312Z,13.93
2022-10-13T22:28:38.481Z,13.94
2022-10-13T22:31:07.027Z,13.79
2022-10-13T22:33:35.222Z,13.81
2022-10-13T22:36:07.037Z,13.83
2022-10-13T22:38:33.436Z,13.82
2022-10-13T22:41:04.829Z,13.85
2022-10-13T22:43:31.353Z,13.84
2022-10-13T22:45:57.740Z,13.84
2022-10-13T22:48:24.155Z,13.75
2022-10-13T22:50:50.486Z,13.90
2022-10-13T22:53:16.842Z,13.87
2022-10-13T22:55:43.193Z,13.94
2022-10-13T22:58:09.614Z,13.92
2022-10-13T23:00:37.171Z,13.92
2022-10-13T23:03:04.057Z,13.93
2022-10-13T23:05:31.045Z,13.98
2022-10-13T23:07:57.590Z,14.02
2022-10-13T23:10:24.012Z,13.97
2022-10-13T23:12:50.662Z,13.92
2022-10-13T23:15:17.087Z,13.83
2022-10-13T23:17:43.591Z,13.88
2022-10-13T23:20:10.329Z,13.90
2022-10-13T23:22:36.674Z,14.01
2022-10-13T23:25:03.079Z,13.89
2022-10-13T23:27:29.583Z,13.92
2022-10-13T23:29:55.907Z,13.92
2022-10-13T23:32:22.327Z,13.88
2022-10-13T23:34:48.673Z,13.90
2022-10-13T23:37:15.055Z,13.95
2022-10-13T23:39:41.404Z,13.89
2022-10-13T23:42:07.741Z,13.86
2022-10-13T23:44:34.138Z,13.87
2022-10-13T23:47:00.537Z,13.85
2022-10-13T23:49:27.199Z,13.82
2022-10-13T23:51:53.655Z,13.84
2022-10-13T23:54:20.011Z,13.81
2022-10-13T23:56:46.359Z,13.79
2022-10-13T23:59:12.682Z,13.81
